createdAt,value
2022-09-28T00:01:07.382Z,11.13
2022-09-28T00:02:07.553Z,11.19
2022-09-28T00:04:11.462Z,11.19
2022-09-28T00:05:11.460Z,11.16
2022-09-28T00:07:04.618Z,11.16
2022-09-28T00:08:04.645Z,11.23
2022-09-28T00:10:11.156Z,11.26
2022-09-28T00:11:08.734Z,11.20
2022-09-28T00:13:01.908Z,11.12
2022-09-28T00:14:01.924Z,11.21
2022-09-28T00:15:54.936Z,11.20
2022-09-28T00:16:54.931Z,11.17
2022-09-28T00:18:48.102Z,11.20
2022-09-28T00:19:48.126Z,11.20
2022-09-28T00:21:41.316Z,11.13
2022-09-28T00:22:41.310Z,11.16
2022-09-28T00:24:45.390Z,11.13
2022-09-28T00:25:45.416Z,11.20
2022-09-28T00:27:49.481Z,11.21
2022-09-28T00:28:49.509Z,11.20
2022-09-28T00:30:42.519Z,11.12
2022-09-28T00:31:42.581Z,11.16
2022-09-28T00:33:35.720Z,11.09
2022-09-28T00:34:35.750Z,11.03
2022-09-28T00:36:29.048Z,11.09
2022-09-28T00:37:29.073Z,11.05
2022-09-28T00:39:33.150Z,11.12
2022-09-28T00:40:33.252Z,11.09
2022-09-28T00:42:26.340Z,11.13
2022-09-28T00:43:26.368Z,11.08
2022-09-28T00:45:19.532Z,11.05
2022-09-28T00:46:19.625Z,11.09
2022-09-28T00:48:12.723Z,11.03
2022-09-28T00:49:12.753Z,11.02
2022-09-28T00:51:16.828Z,11.01
2022-09-28T00:52:16.851Z,10.98
2022-09-28T00:54:10.018Z,10.98
2022-09-28T00:55:10.041Z,10.94
2022-09-28T00:57:14.126Z,10.93
2022-09-28T00:58:14.152Z,10.90
2022-09-28T01:00:18.244Z,10.76
2022-09-28T01:01:18.275Z,10.90
2022-09-28T01:03:22.296Z,10.88
2022-09-28T01:04:23.545Z,10.91
2022-09-28T01:06:15.312Z,10.93
2022-09-28T01:07:15.339Z,10.95
2022-09-28T01:09:19.444Z,10.98
2022-09-28T01:10:19.439Z,10.94
2022-09-28T01:12:23.501Z,10.98
2022-09-28T01:13:23.526Z,10.99
2022-09-28T01:15:16.724Z,10.95
2022-09-28T01:16:16.752Z,10.95
2022-09-28T01:18:09.873Z,10.95
2022-09-28T01:19:09.926Z,10.95
2022-09-28T01:21:03.069Z,10.90
2022-09-28T01:22:03.092Z,10.90
2022-09-28T01:23:56.267Z,10.99
2022-09-28T01:24:56.282Z,10.86
2022-09-28T01:27:00.355Z,10.95
2022-09-28T01:28:00.378Z,10.87
2022-09-28T01:29:53.544Z,10.83
2022-09-28T01:30:53.565Z,10.87
2022-09-28T01:32:57.639Z,10.88
2022-09-28T01:33:57.672Z,10.90
2022-09-28T01:35:50.658Z,10.88
2022-09-28T01:36:50.704Z,10.86
2022-09-28T01:38:43.888Z,10.86
2022-09-28T01:39:43.873Z,10.81
2022-09-28T01:41:37.032Z,10.84
2022-09-28T01:42:37.056Z,10.81
2022-09-28T01:44:30.255Z,10.84
2022-09-28T01:45:30.301Z,10.78
2022-09-28T01:47:34.336Z,10.90
2022-09-28T01:48:34.331Z,10.80
2022-09-28T01:50:27.544Z,10.76
2022-09-28T01:51:27.533Z,10.86
2022-09-28T01:53:20.698Z,10.81
2022-09-28T01:54:20.725Z,10.78
2022-09-28T01:56:13.710Z,10.81
2022-09-28T01:57:13.730Z,10.73
2022-09-28T01:59:06.944Z,10.80
2022-09-28T02:00:06.924Z,10.83
2022-09-28T02:02:00.137Z,10.84
2022-09-28T02:03:00.107Z,10.76
2022-09-28T02:04:53.305Z,10.81
2022-09-28T02:05:53.297Z,10.84
2022-09-28T02:07:57.373Z,10.76
2022-09-28T02:08:57.395Z,10.84
2022-09-28T02:10:50.558Z,10.72
2022-09-28T02:11:50.586Z,10.70
2022-09-28T02:13:43.745Z,10.76
2022-09-28T02:14:43.769Z,10.75
2022-09-28T02:16:36.983Z,10.75
2022-09-28T02:17:36.956Z,10.66
2022-09-28T02:19:30.119Z,10.63
2022-09-28T02:20:30.148Z,10.73
2022-09-28T02:22:23.410Z,10.63
2022-09-28T02:23:23.340Z,10.72
2022-09-28T02:25:27.387Z,10.72
2022-09-28T02:26:27.415Z,10.63
2022-09-28T02:28:31.524Z,10.65
2022-09-28T02:29:31.504Z,10.68
2022-09-28T02:31:24.742Z,10.65
2022-09-28T02:32:24.704Z,10.65
2022-09-28T02:34:17.870Z,10.66
2022-09-28T02:35:17.896Z,10.75
2022-09-28T02:37:11.072Z,10.65
2022-09-28T02:38:11.102Z,10.70
2022-09-28T02:40:04.314Z,10.70
2022-09-28T02:41:04.290Z,10.73
2022-09-28T02:43:08.377Z,10.75
2022-09-28T02:44:08.417Z,10.75
2022-09-28T02:46:01.422Z,10.73
2022-09-28T02:47:01.397Z,10.76
2022-09-28T02:49:10.675Z,10.80
2022-09-28T02:49:54.589Z,10.72
2022-09-28T02:51:47.805Z,10.78
2022-09-28T02:52:47.787Z,10.73
2022-09-28T02:54:40.944Z,10.83
2022-09-28T02:55:40.974Z,10.75
2022-09-28T02:57:34.202Z,10.81
2022-09-28T02:58:34.186Z,10.83
2022-09-28T03:00:27.355Z,10.80
2022-09-28T03:01:27.421Z,10.80
2022-09-28T03:03:31.479Z,10.83
2022-09-28T03:04:31.464Z,10.83
2022-09-28T03:06:24.440Z,10.76
2022-09-28T03:07:24.463Z,10.80
2022-09-28T03:09:17.749Z,10.84
2022-09-28T03:10:17.661Z,10.81
2022-09-28T03:12:21.760Z,10.86
2022-09-28T03:13:21.750Z,10.87
2022-09-28T03:15:14.953Z,10.81
2022-09-28T03:16:14.992Z,10.87
2022-09-28T03:18:19.057Z,10.76
2022-09-28T03:19:19.049Z,10.80
2022-09-28T03:21:23.129Z,10.83
2022-09-28T03:22:23.152Z,10.88
2022-09-28T03:24:27.248Z,10.80
2022-09-28T03:25:27.257Z,10.80
2022-09-28T03:27:31.320Z,10.81
2022-09-28T03:28:31.345Z,10.83
2022-09-28T03:30:35.436Z,10.86
2022-09-28T03:31:35.508Z,10.73
2022-09-28T03:33:28.610Z,10.80
2022-09-28T03:34:28.630Z,10.81
2022-09-28T03:36:21.606Z,10.68
2022-09-28T03:37:21.626Z,10.72
2022-09-28T03:39:14.934Z,10.73
2022-09-28T03:40:15.026Z,10.72
2022-09-28T03:42:07.978Z,10.80
2022-09-28T03:43:08.003Z,10.70
2022-09-28T03:45:01.164Z,10.75
2022-09-28T03:46:01.245Z,10.73
2022-09-28T03:47:54.359Z,10.72
2022-09-28T03:48:54.384Z,10.81
2022-09-28T03:50:58.460Z,10.78
2022-09-28T03:51:58.487Z,10.78
2022-09-28T03:53:51.656Z,10.83
2022-09-28T03:54:51.678Z,10.76
2022-09-28T03:56:44.850Z,10.83
2022-09-28T03:57:44.875Z,10.80
2022-09-28T03:59:38.037Z,10.88
2022-09-28T04:00:38.088Z,10.75
2022-09-28T04:02:42.146Z,10.78
2022-09-28T04:03:42.169Z,10.83
2022-09-28T04:05:35.142Z,10.78
2022-09-28T04:06:35.166Z,10.80
2022-09-28T04:08:28.337Z,10.81
2022-09-28T04:09:28.366Z,10.78
2022-09-28T04:11:21.566Z,10.81
2022-09-28T04:12:21.554Z,10.76
2022-09-28T04:14:25.621Z,10.83
2022-09-28T04:15:25.644Z,10.84
2022-09-28T04:17:29.750Z,10.80
2022-09-28T04:18:29.741Z,10.78
2022-09-28T04:20:22.911Z,10.83
2022-09-28T04:21:22.929Z,10.81
2022-09-28T04:23:16.133Z,10.68
2022-09-28T04:24:16.124Z,10.66
2022-09-28T04:26:09.114Z,10.72
2022-09-28T04:27:09.141Z,10.70
2022-09-28T04:29:13.276Z,10.70
2022-09-28T04:30:13.225Z,10.70
2022-09-28T04:32:06.488Z,10.72
2022-09-28T04:33:06.415Z,10.69
2022-09-28T04:35:10.607Z,10.72
2022-09-28T04:36:10.528Z,10.66
2022-09-28T04:38:03.704Z,10.75
2022-09-28T04:39:03.721Z,10.66
2022-09-28T04:41:07.894Z,10.54
2022-09-28T04:42:07.894Z,10.66
2022-09-28T04:44:11.983Z,10.54
2022-09-28T04:45:11.977Z,10.57
2022-09-28T04:47:05.517Z,10.55
2022-09-28T04:48:05.166Z,10.58
2022-09-28T04:49:58.329Z,10.54
2022-09-28T04:50:58.354Z,10.52
2022-09-28T04:52:51.528Z,10.72
2022-09-28T04:53:51.546Z,10.65
2022-09-28T04:55:44.555Z,10.65
2022-09-28T04:56:44.550Z,10.63
2022-09-28T04:58:37.710Z,10.60
2022-09-28T04:59:37.734Z,10.66
2022-09-28T05:01:30.987Z,10.68
2022-09-28T05:02:30.981Z,10.66
2022-09-28T05:04:35.026Z,10.70
2022-09-28T05:05:35.017Z,10.62
2022-09-28T05:07:28.222Z,10.69
2022-09-28T05:08:28.249Z,10.72
2022-09-28T05:10:32.346Z,10.70
2022-09-28T05:11:32.337Z,10.73
2022-09-28T05:13:36.435Z,10.66
2022-09-28T05:14:36.423Z,10.66
2022-09-28T05:16:29.634Z,10.72
2022-09-28T05:17:29.607Z,10.73
2022-09-28T05:19:33.711Z,10.73
2022-09-28T05:20:33.702Z,10.70
2022-09-28T05:22:37.768Z,10.70
2022-09-28T05:23:37.792Z,10.76
2022-09-28T05:25:30.794Z,10.73
2022-09-28T05:26:30.788Z,10.66
2022-09-28T05:28:34.850Z,10.63
2022-09-28T05:29:34.875Z,10.57
2022-09-28T05:31:28.118Z,10.62
2022-09-28T05:32:28.066Z,10.68
2022-09-28T05:34:21.233Z,10.58
2022-09-28T05:35:21.261Z,10.65
2022-09-28T05:37:25.326Z,10.63
2022-09-28T05:38:25.352Z,10.69
2022-09-28T05:40:18.606Z,10.58
2022-09-28T05:41:18.543Z,10.57
2022-09-28T05:43:22.616Z,10.57
2022-09-28T05:44:22.641Z,10.62
2022-09-28T05:46:15.835Z,10.57
2022-09-28T05:47:15.820Z,10.63
2022-09-28T05:49:08.878Z,10.62
2022-09-28T05:50:08.875Z,10.65
2022-09-28T05:52:12.938Z,10.65
2022-09-28T05:53:12.960Z,10.68
2022-09-28T05:55:13.313Z,10.62
2022-09-28T05:56:06.146Z,10.68
2022-09-28T05:58:10.201Z,10.66
2022-09-28T05:59:10.216Z,10.65
2022-09-28T06:01:14.385Z,10.69
2022-09-28T06:02:14.325Z,10.70
2022-09-28T06:04:18.497Z,10.55
2022-09-28T06:05:18.374Z,10.66
2022-09-28T06:07:22.467Z,10.65
2022-09-28T06:08:22.450Z,10.66
2022-09-28T06:10:26.498Z,10.69
2022-09-28T06:11:26.525Z,10.68
2022-09-28T06:13:30.600Z,10.72
2022-09-28T06:14:30.595Z,10.80
2022-09-28T06:16:23.584Z,10.76
2022-09-28T06:17:23.587Z,10.73
2022-09-28T06:19:27.666Z,10.70
2022-09-28T06:20:27.667Z,10.76
2022-09-28T06:22:31.699Z,10.76
2022-09-28T06:23:31.726Z,10.81
2022-09-28T06:25:35.771Z,10.83
2022-09-28T06:26:35.797Z,10.76
2022-09-28T06:28:39.843Z,10.75
2022-09-28T06:29:39.865Z,10.86
2022-09-28T06:31:43.957Z,10.83
2022-09-28T06:32:43.944Z,10.93
2022-09-28T06:34:49.907Z,10.87
2022-09-28T06:35:48.014Z,10.87
2022-09-28T06:37:52.095Z,10.93
2022-09-28T06:38:52.083Z,10.95
2022-09-28T06:40:56.172Z,10.98
2022-09-28T06:41:56.176Z,10.95
2022-09-28T06:44:00.266Z,10.99
2022-09-28T06:45:00.232Z,11.01
2022-09-28T06:47:04.276Z,11.08
2022-09-28T06:48:04.299Z,11.09
2022-09-28T06:50:08.377Z,11.13
2022-09-28T06:51:08.370Z,11.12
2022-09-28T06:53:12.417Z,11.20
2022-09-28T06:54:12.444Z,11.16
2022-09-28T06:56:05.440Z,11.17
2022-09-28T06:57:05.436Z,11.17
2022-09-28T06:59:09.486Z,11.19
2022-09-28T07:00:09.513Z,11.21
2022-09-28T07:02:13.609Z,11.24
2022-09-28T07:03:13.591Z,11.24
2022-09-28T07:05:17.639Z,11.23
2022-09-28T07:06:17.671Z,11.27
2022-09-28T07:08:21.704Z,11.27
2022-09-28T07:09:32.269Z,11.33
2022-09-28T07:11:25.777Z,11.30
2022-09-28T07:12:25.803Z,11.35
2022-09-28T07:14:47.036Z,11.41
2022-09-28T07:15:29.874Z,11.38
2022-09-28T07:17:37.844Z,11.46
2022-09-28T07:18:33.946Z,11.49
2022-09-28T07:20:51.174Z,11.53
2022-09-28T07:21:38.019Z,11.53
2022-09-28T07:23:51.580Z,11.45
2022-09-28T07:24:42.091Z,11.53
2022-09-28T07:26:46.142Z,11.63
2022-09-28T07:27:46.195Z,11.69
2022-09-28T07:29:50.247Z,11.66
2022-09-28T07:30:50.273Z,11.78
2022-09-28T07:32:54.286Z,11.88
2022-09-28T07:33:54.316Z,11.96
2022-09-28T07:35:47.281Z,12.03
2022-09-28T07:36:47.301Z,12.04
2022-09-28T07:38:51.414Z,12.07
2022-09-28T07:39:51.408Z,12.16
2022-09-28T07:41:59.639Z,12.23
2022-09-28T07:42:55.494Z,12.25
2022-09-28T07:44:59.530Z,12.33
2022-09-28T07:45:59.646Z,12.33
2022-09-28T07:48:03.671Z,12.37
2022-09-28T07:49:05.804Z,12.37
2022-09-28T07:51:07.679Z,12.43
2022-09-28T07:52:07.705Z,12.62
2022-09-28T07:54:11.761Z,12.58
2022-09-28T07:55:11.777Z,12.63
2022-09-28T07:57:15.859Z,12.59
2022-09-28T07:58:15.855Z,12.54
2022-09-28T08:00:19.932Z,12.69
2022-09-28T08:01:19.969Z,12.70
2022-09-28T08:03:24.367Z,12.71
2022-09-28T08:04:24.201Z,12.74
2022-09-28T08:06:16.970Z,12.73
2022-09-28T08:07:21.581Z,12.74
2022-09-28T08:09:21.030Z,12.87
2022-09-28T08:10:21.054Z,13.01
2022-09-28T08:12:25.137Z,13.01
2022-09-28T08:13:27.102Z,13.07
2022-09-28T08:15:29.615Z,13.04
2022-09-28T08:16:29.316Z,13.10
2022-09-28T08:18:33.260Z,13.10
2022-09-28T08:19:33.282Z,13.16
2022-09-28T08:21:37.368Z,13.21
2022-09-28T08:22:37.364Z,13.22
2022-09-28T08:23:37.391Z,13.16
2022-09-28T08:24:37.425Z,13.27
2022-09-28T08:25:37.458Z,13.25
2022-09-28T08:26:37.489Z,13.25
2022-09-28T08:27:37.521Z,13.22
2022-09-28T08:28:37.555Z,13.24
2022-09-28T08:29:37.595Z,13.36
2022-09-28T08:30:37.657Z,13.28
2022-09-28T08:31:37.652Z,13.43
2022-09-28T08:32:37.697Z,13.38
2022-09-28T08:33:37.717Z,13.39
2022-09-28T08:34:37.747Z,13.46
2022-09-28T08:35:37.781Z,13.47
2022-09-28T08:36:37.812Z,13.65
2022-09-28T08:37:37.847Z,13.59
2022-09-28T08:38:37.893Z,13.63
2022-09-28T08:39:37.913Z,13.75
2022-09-28T08:40:37.976Z,13.75
2022-09-28T08:41:37.977Z,13.75
2022-09-28T08:42:38.010Z,13.75
2022-09-28T08:43:38.043Z,13.76
2022-09-28T08:44:38.126Z,13.73
2022-09-28T08:45:38.144Z,13.71
2022-09-28T08:46:38.140Z,13.72
2022-09-28T08:47:38.172Z,13.79
2022-09-28T08:48:38.204Z,13.76
2022-09-28T08:49:38.238Z,13.80
2022-09-28T08:50:38.285Z,13.84
2022-09-28T08:51:38.353Z,13.86
2022-09-28T08:52:38.335Z,13.83
2022-09-28T08:53:38.372Z,13.83
2022-09-28T08:54:38.404Z,13.83
2022-09-28T08:55:38.437Z,13.80
2022-09-28T08:56:38.470Z,13.72
2022-09-28T08:57:38.502Z,13.72
2022-09-28T08:58:38.535Z,13.76
2022-09-28T08:59:38.568Z,13.76
2022-09-28T09:00:38.598Z,13.81
2022-09-28T09:01:38.702Z,13.72
2022-09-28T09:02:38.759Z,13.75
2022-09-28T09:03:38.701Z,13.62
2022-09-28T09:04:38.732Z,13.71
2022-09-28T09:05:38.764Z,13.65
2022-09-28T09:06:38.798Z,13.65
2022-09-28T09:07:38.835Z,13.65
2022-09-28T09:08:38.880Z,13.51
2022-09-28T09:09:38.904Z,13.51
2022-09-28T09:10:38.932Z,13.53
2022-09-28T09:11:38.960Z,13.55
2022-09-28T09:12:39.001Z,13.50
2022-09-28T09:13:39.031Z,13.53
2022-09-28T09:14:39.058Z,13.44
2022-09-28T09:15:39.092Z,13.47
2022-09-28T09:16:39.203Z,13.47
2022-09-28T09:17:39.163Z,13.46
2022-09-28T09:18:39.188Z,13.59
2022-09-28T09:19:39.227Z,13.62
2022-09-28T09:20:39.260Z,13.71
2022-09-28T09:21:39.287Z,13.62
2022-09-28T09:22:39.323Z,13.72
2022-09-28T09:23:39.352Z,13.84
2022-09-28T09:24:39.387Z,13.81
2022-09-28T09:25:39.478Z,13.83
2022-09-28T09:26:39.457Z,13.96
2022-09-28T09:27:39.486Z,13.96
2022-09-28T09:28:39.523Z,13.93
2022-09-28T09:29:39.549Z,13.94
2022-09-28T09:30:39.637Z,14.16
2022-09-28T09:31:39.618Z,14.19
2022-09-28T09:32:39.657Z,14.29
2022-09-28T09:33:39.680Z,14.45
2022-09-28T09:34:39.720Z,14.54
2022-09-28T09:35:39.751Z,14.54
2022-09-28T09:36:41.213Z,14.53
2022-09-28T09:37:39.816Z,14.56
2022-09-28T09:38:39.870Z,14.52
2022-09-28T09:39:39.887Z,14.61
2022-09-28T09:40:39.940Z,14.56
2022-09-28T09:41:39.947Z,14.72
2022-09-28T09:42:39.981Z,14.78
2022-09-28T09:43:40.014Z,14.69
2022-09-28T09:44:40.054Z,14.83
2022-09-28T09:45:40.093Z,14.87
2022-09-28T09:46:40.123Z,14.85
2022-09-28T09:47:40.145Z,14.82
2022-09-28T09:48:40.187Z,14.82
2022-09-28T09:49:40.220Z,14.90
2022-09-28T09:50:40.250Z,14.98
2022-09-28T09:51:40.277Z,14.94
2022-09-28T09:52:43.675Z,14.94
2022-09-28T09:53:40.343Z,14.83
2022-09-28T09:54:40.385Z,14.72
2022-09-28T09:55:40.415Z,14.63
2022-09-28T09:56:40.449Z,14.59
2022-09-28T09:57:40.482Z,14.52
2022-09-28T09:58:40.516Z,14.46
2022-09-28T09:59:40.548Z,14.52
2022-09-28T10:00:40.578Z,14.56
2022-09-28T10:01:40.679Z,14.66
2022-09-28T10:02:40.846Z,14.75
2022-09-28T10:03:40.678Z,14.82
2022-09-28T10:04:40.716Z,15.11
2022-09-28T10:05:40.748Z,15.22
2022-09-28T10:06:40.781Z,15.25
2022-09-28T10:07:43.459Z,15.40
2022-09-28T10:08:40.849Z,15.48
2022-09-28T10:09:40.886Z,15.46
2022-09-28T10:10:40.913Z,15.51
2022-09-28T10:11:40.949Z,15.52
2022-09-28T10:12:40.979Z,15.49
2022-09-28T10:13:41.012Z,15.49
2022-09-28T10:14:41.047Z,15.38
2022-09-28T10:15:41.079Z,15.27
2022-09-28T10:16:41.159Z,15.25
2022-09-28T10:17:41.144Z,15.05
2022-09-28T10:18:41.180Z,15.09
2022-09-28T10:19:41.213Z,14.97
2022-09-28T10:20:41.249Z,15.01
2022-09-28T10:21:41.281Z,14.91
2022-09-28T10:22:41.313Z,14.87
2022-09-28T10:23:41.347Z,14.79
2022-09-28T10:24:41.380Z,14.83
2022-09-28T10:25:41.415Z,14.75
2022-09-28T10:26:41.448Z,14.72
2022-09-28T10:27:41.492Z,14.63
2022-09-28T10:28:41.516Z,14.60
2022-09-28T10:29:41.548Z,14.54
2022-09-28T10:30:41.675Z,14.60
2022-09-28T10:31:41.623Z,14.63
2022-09-28T10:32:41.653Z,14.61
2022-09-28T10:33:41.686Z,14.59
2022-09-28T10:34:41.720Z,14.54
2022-09-28T10:35:41.751Z,14.56
2022-09-28T10:36:41.789Z,14.56
2022-09-28T10:37:41.818Z,14.56
2022-09-28T10:38:41.858Z,14.45
2022-09-28T10:39:41.886Z,14.48
2022-09-28T10:40:41.954Z,14.44
2022-09-28T10:41:41.951Z,14.35
2022-09-28T10:42:41.986Z,14.41
2022-09-28T10:43:44.517Z,14.36
2022-09-28T10:44:42.052Z,14.35
2022-09-28T10:45:42.104Z,14.34
2022-09-28T10:46:42.118Z,14.30
2022-09-28T10:47:42.152Z,14.29
2022-09-28T10:48:42.187Z,14.26
2022-09-28T10:49:46.724Z,14.24
2022-09-28T10:50:42.252Z,14.19
2022-09-28T10:51:42.285Z,14.13
2022-09-28T10:52:42.334Z,14.11
2022-09-28T10:53:42.352Z,14.05
2022-09-28T10:54:42.396Z,14.05
2022-09-28T10:55:42.418Z,13.94
2022-09-28T10:56:42.454Z,13.99
2022-09-28T10:57:42.486Z,13.99
2022-09-28T10:58:42.526Z,13.99
2022-09-28T10:59:42.617Z,13.99
2022-09-28T11:00:42.589Z,13.99
2022-09-28T11:01:42.656Z,13.93
2022-09-28T11:02:42.696Z,13.90
2022-09-28T11:03:42.688Z,13.88
2022-09-28T11:04:42.720Z,13.96
2022-09-28T11:05:42.765Z,13.96
2022-09-28T11:06:42.788Z,14.04
2022-09-28T11:07:42.818Z,13.94
2022-09-28T11:08:42.863Z,13.96
2022-09-28T11:09:45.620Z,13.99
2022-09-28T11:10:42.919Z,14.08
2022-09-28T11:11:42.950Z,14.06
2022-09-28T11:12:42.983Z,14.02
2022-09-28T11:13:43.015Z,14.06
2022-09-28T11:14:43.069Z,14.08
2022-09-28T11:15:43.086Z,14.06
2022-09-28T11:16:43.190Z,14.04
2022-09-28T11:17:43.148Z,13.98
2022-09-28T11:18:43.184Z,13.90
2022-09-28T11:19:43.216Z,13.80
2022-09-28T11:20:45.433Z,13.75
2022-09-28T11:21:43.285Z,13.72
2022-09-28T11:22:43.315Z,13.63
2022-09-28T11:23:43.349Z,13.62
2022-09-28T11:24:43.398Z,13.59
2022-09-28T11:25:43.413Z,13.51
2022-09-28T11:26:43.452Z,13.44
2022-09-28T11:27:43.480Z,13.35
2022-09-28T11:28:43.515Z,13.36
2022-09-28T11:29:43.549Z,13.43
2022-09-28T11:30:43.629Z,13.36
2022-09-28T11:31:43.610Z,13.38
2022-09-28T11:32:43.643Z,13.41
2022-09-28T11:33:43.677Z,13.44
2022-09-28T11:34:58.503Z,13.50
2022-09-28T11:35:43.744Z,13.47
2022-09-28T11:36:43.777Z,13.51
2022-09-28T11:37:43.806Z,13.50
2022-09-28T11:38:43.842Z,13.51
2022-09-28T11:39:43.874Z,13.55
2022-09-28T11:40:44.110Z,13.51
2022-09-28T11:41:43.939Z,13.69
2022-09-28T11:42:43.977Z,13.81
2022-09-28T11:43:44.035Z,13.90
2022-09-28T11:44:44.046Z,14.09
2022-09-28T11:45:44.145Z,14.17
2022-09-28T11:46:44.102Z,14.19
2022-09-28T11:47:44.137Z,14.30
2022-09-28T11:48:44.171Z,14.29
2022-09-28T11:49:44.205Z,14.35
2022-09-28T11:50:44.238Z,14.44
2022-09-28T11:51:44.268Z,14.57
2022-09-28T11:52:44.309Z,14.56
2022-09-28T11:53:44.331Z,14.59
2022-09-28T11:54:44.367Z,14.61
2022-09-28T11:55:51.577Z,14.63
2022-09-28T11:57:48.443Z,14.82
2022-09-28T11:58:48.474Z,14.75
2022-09-28T12:00:41.631Z,14.67
2022-09-28T12:01:41.657Z,14.60
2022-09-28T12:03:45.923Z,14.44
2022-09-28T12:04:45.756Z,14.48
2022-09-28T12:06:38.749Z,14.42
2022-09-28T12:07:38.749Z,14.36
2022-09-28T12:09:42.800Z,14.49
2022-09-28T12:10:45.574Z,14.64
2022-09-28T12:12:36.001Z,14.85
2022-09-28T12:13:36.028Z,14.90
2022-09-28T12:15:59.570Z,15.05
2022-09-28T12:17:08.839Z,15.12
2022-09-28T12:18:33.275Z,15.13
2022-09-28T12:19:33.294Z,15.18
2022-09-28T12:21:26.453Z,15.03
2022-09-28T12:22:26.482Z,15.16
2022-09-28T12:24:30.568Z,15.18
2022-09-28T12:25:30.565Z,15.18
2022-09-28T12:27:23.612Z,15.12
2022-09-28T12:28:23.653Z,15.11
2022-09-28T12:30:27.699Z,15.01
2022-09-28T12:31:27.730Z,15.01
2022-09-28T12:33:20.886Z,15.05
2022-09-28T12:34:20.924Z,15.09
2022-09-28T12:36:13.886Z,15.00
2022-09-28T12:37:13.927Z,14.97
2022-09-28T12:39:35.641Z,15.12
2022-09-28T12:40:18.079Z,15.03
2022-09-28T12:42:11.195Z,15.04
2022-09-28T12:43:11.197Z,14.85
2022-09-28T12:45:15.249Z,14.75
2022-09-28T12:46:15.304Z,14.80
2022-09-28T12:48:19.315Z,14.72
2022-09-28T12:51:23.428Z,14.83
2022-09-28T12:52:23.455Z,14.85
2022-09-28T12:54:16.534Z,14.80
2022-09-28T12:55:16.484Z,14.91
2022-09-28T12:57:20.547Z,14.85
2022-09-28T12:58:20.579Z,14.67
2022-09-28T13:00:24.721Z,14.64
2022-09-28T13:01:24.741Z,14.61
2022-09-28T13:03:28.744Z,14.44
2022-09-28T13:04:28.772Z,14.46
2022-09-28T13:06:21.778Z,14.34
2022-09-28T13:07:21.782Z,14.31
2022-09-28T13:09:25.823Z,14.36
2022-09-28T13:10:25.869Z,14.41
2022-09-28T13:12:29.905Z,14.31
2022-09-28T13:13:29.936Z,14.45
2022-09-28T13:15:23.262Z,14.44
2022-09-28T13:16:23.367Z,14.53
2022-09-28T13:18:27.311Z,14.26
2022-09-28T13:19:27.340Z,14.41
2022-09-28T13:21:31.429Z,14.41
2022-09-28T13:22:31.461Z,14.34
2022-09-28T13:24:33.296Z,14.44
2022-09-28T13:25:24.478Z,14.53
2022-09-28T13:27:17.636Z,14.67
2022-09-28T13:28:17.667Z,14.67
2022-09-28T13:30:10.818Z,14.71
2022-09-28T13:31:10.849Z,14.83
2022-09-28T13:33:04.025Z,14.94
2022-09-28T13:34:04.055Z,14.94
2022-09-28T13:35:57.029Z,15.01
2022-09-28T13:36:57.060Z,15.01
2022-09-28T13:38:50.263Z,15.07
2022-09-28T13:39:50.240Z,15.01
2022-09-28T13:41:54.302Z,15.20
2022-09-28T13:42:54.335Z,15.25
2022-09-28T13:44:47.504Z,15.30
2022-09-28T13:45:47.554Z,15.40
2022-09-28T13:46:47.559Z,15.41
2022-09-28T13:47:47.599Z,15.38
2022-09-28T13:48:47.632Z,15.46
2022-09-28T13:49:47.664Z,15.46
2022-09-28T13:50:47.693Z,15.53
2022-09-28T13:51:47.726Z,15.53
2022-09-28T13:52:47.767Z,15.52
2022-09-28T13:53:47.795Z,15.49
2022-09-28T13:54:47.830Z,15.56
2022-09-28T13:55:47.867Z,15.51
2022-09-28T13:56:47.900Z,15.53
2022-09-28T13:57:47.933Z,15.53
2022-09-28T13:58:47.971Z,15.64
2022-09-28T13:59:47.996Z,15.58
2022-09-28T14:00:48.037Z,15.64
2022-09-28T14:01:48.106Z,15.64
2022-09-28T14:02:48.197Z,15.67
2022-09-28T14:03:48.136Z,15.64
2022-09-28T14:04:48.168Z,15.70
2022-09-28T14:05:48.213Z,15.70
2022-09-28T14:06:50.366Z,15.74
2022-09-28T14:07:48.262Z,15.77
2022-09-28T14:08:48.295Z,15.84
2022-09-28T14:09:48.336Z,15.88
2022-09-28T14:10:48.367Z,15.93
2022-09-28T14:11:48.398Z,15.95
2022-09-28T14:12:48.434Z,15.98
2022-09-28T14:13:48.465Z,16.01
2022-09-28T14:14:48.504Z,16.07
2022-09-28T14:15:48.587Z,16.08
2022-09-28T14:16:48.568Z,16.13
2022-09-28T14:17:48.604Z,16.23
2022-09-28T14:18:48.637Z,16.26
2022-09-28T14:19:48.672Z,16.36
2022-09-28T14:20:48.708Z,16.40
2022-09-28T14:21:48.745Z,16.41
2022-09-28T14:22:48.778Z,16.37
2022-09-28T14:23:48.820Z,16.33
2022-09-28T14:24:48.868Z,16.37
2022-09-28T14:25:48.877Z,16.48
2022-09-28T14:26:48.910Z,16.52
2022-09-28T14:27:48.952Z,16.67
2022-09-28T14:28:48.985Z,16.70
2022-09-28T14:29:49.038Z,16.87
2022-09-28T14:30:49.086Z,16.80
2022-09-28T14:31:49.087Z,16.91
2022-09-28T14:32:49.118Z,16.90
2022-09-28T14:33:49.160Z,16.81
2022-09-28T14:34:49.186Z,16.95
2022-09-28T14:35:49.223Z,16.92
2022-09-28T14:36:49.278Z,16.88
2022-09-28T14:37:49.291Z,16.82
2022-09-28T14:38:49.332Z,16.87
2022-09-28T14:39:49.363Z,16.75
2022-09-28T14:40:50.078Z,16.81
2022-09-28T14:41:49.429Z,16.82
2022-09-28T14:42:49.465Z,16.85
2022-09-28T14:43:49.499Z,16.82
2022-09-28T14:44:49.539Z,16.84
2022-09-28T14:45:49.607Z,16.84
2022-09-28T14:46:49.601Z,16.87
2022-09-28T14:47:49.641Z,16.77
2022-09-28T14:48:49.671Z,16.75
2022-09-28T14:49:49.708Z,16.72
2022-09-28T14:50:49.756Z,16.70
2022-09-28T14:51:49.797Z,16.66
2022-09-28T14:52:49.819Z,16.55
2022-09-28T14:53:49.846Z,16.59
2022-09-28T14:54:49.881Z,16.47
2022-09-28T14:55:49.922Z,16.50
2022-09-28T14:56:49.948Z,16.42
2022-09-28T14:57:50.002Z,16.41
2022-09-28T14:58:50.018Z,16.41
2022-09-28T14:59:50.055Z,16.36
2022-09-28T15:00:50.094Z,16.33
2022-09-28T15:01:50.123Z,16.29
2022-09-28T15:02:50.158Z,16.23
2022-09-28T15:03:50.193Z,16.25
2022-09-28T15:04:50.406Z,16.13
2022-09-28T15:05:50.278Z,16.13
2022-09-28T15:06:50.299Z,16.10
2022-09-28T15:07:50.332Z,16.16
2022-09-28T15:08:50.366Z,16.06
2022-09-28T15:09:50.407Z,16.11
2022-09-28T15:10:50.434Z,15.96
2022-09-28T15:11:50.471Z,16.06
2022-09-28T15:12:50.503Z,16.01
2022-09-28T15:13:50.539Z,15.91
2022-09-28T15:14:50.574Z,16.04
2022-09-28T15:15:50.739Z,16.03
2022-09-28T15:16:50.642Z,16.10
2022-09-28T15:17:50.678Z,16.07
2022-09-28T15:18:50.714Z,16.04
2022-09-28T15:19:50.747Z,16.06
2022-09-28T15:20:50.780Z,16.08
2022-09-28T15:21:50.816Z,16.13
2022-09-28T15:22:50.852Z,16.10
2022-09-28T15:23:50.886Z,16.10
2022-09-28T15:24:50.930Z,16.03
2022-09-28T15:25:50.956Z,16.04
2022-09-28T15:26:50.995Z,16.08
2022-09-28T15:27:51.038Z,16.11
2022-09-28T15:28:51.068Z,16.06
2022-09-28T15:29:51.105Z,16.08
2022-09-28T15:30:51.299Z,15.98
2022-09-28T15:31:54.537Z,15.99
2022-09-28T15:32:51.197Z,15.98
2022-09-28T15:33:51.229Z,15.99
2022-09-28T15:34:51.264Z,15.98
2022-09-28T15:35:51.299Z,16.07
2022-09-28T15:36:51.340Z,16.04
2022-09-28T15:37:51.367Z,15.93
2022-09-28T15:38:51.409Z,16.11
2022-09-28T15:39:51.446Z,16.13
2022-09-28T15:40:51.529Z,16.07
2022-09-28T15:41:51.507Z,16.10
2022-09-28T15:42:54.787Z,16.06
2022-09-28T15:43:51.576Z,15.99
2022-09-28T15:44:51.606Z,16.01
2022-09-28T15:45:51.703Z,15.95
2022-09-28T15:46:51.675Z,15.85
2022-09-28T15:47:51.714Z,15.78
2022-09-28T15:48:51.745Z,15.71
2022-09-28T15:49:51.779Z,15.71
2022-09-28T15:50:51.815Z,15.64
2022-09-28T15:51:51.848Z,15.62
2022-09-28T15:52:51.883Z,15.60
2022-09-28T15:53:51.916Z,15.52
2022-09-28T15:54:51.950Z,15.59
2022-09-28T15:55:51.988Z,15.44
2022-09-28T15:56:52.021Z,15.44
2022-09-28T15:57:52.053Z,15.35
2022-09-28T15:58:52.088Z,15.34
2022-09-28T15:59:52.122Z,15.35
2022-09-28T16:00:52.155Z,15.31
2022-09-28T16:01:52.274Z,15.35
2022-09-28T16:02:52.317Z,15.34
2022-09-28T16:03:52.260Z,15.34
2022-09-28T16:04:52.293Z,15.23
2022-09-28T16:05:52.328Z,15.23
2022-09-28T16:06:52.362Z,15.20
2022-09-28T16:07:55.872Z,15.19
2022-09-28T16:08:52.428Z,15.20
2022-09-28T16:09:52.464Z,15.12
2022-09-28T16:10:52.503Z,15.16
2022-09-28T16:11:52.531Z,15.11
2022-09-28T16:12:52.571Z,15.05
2022-09-28T16:13:52.600Z,15.03
2022-09-28T16:14:52.633Z,14.97